Time;durP1;ratioP1;P1;durP2;ratioP2;P2;SDS_P1;SDS_P2;PMS_P1;PMS_P2;Temp;Humidity;BMP_temperature;BMP_pressure;BME280_temperature;BME280_humidity;BME280_pressure;Samples;Min_cycle;Max_cycle;Signal;HPM_P1;HPM_P2
2022/06/10 00:01:27;;;;;;;9.80;2.85;;;13.00;73.30;;;;;;4083815;28;20031;-79
2022/06/10 00:03:28;;;;;;;7.65;2.60;;;13.00;73.30;;;;;;4082909;28;20119;-80
2022/06/10 00:05:31;;;;;;;7.50;2.65;;;13.00;73.30;;;;;;4053593;29;20052;-80
2022/06/10 00:07:34;;;;;;;8.02;2.72;;;13.00;73.30;;;;;;4086855;28;20031;-80
2022/06/10 00:09:34;;;;;;;6.63;2.10;;;13.00;73.50;;;;;;4070712;29;20108;-79
2022/06/10 00:11:35;;;;;;;11.35;3.15;;;13.00;73.30;;;;;;4070297;29;20020;-80
2022/06/10 00:13:39;;;;;;;7.57;2.83;;;13.00;73.30;;;;;;4089758;28;20046;-80
2022/06/10 00:15:41;;;;;;;5.28;2.50;;;13.00;73.30;;;;;;4086917;28;20534;-80
2022/06/10 00:17:42;;;;;;;6.38;2.40;;;13.00;73.30;;;;;;4088083;28;20157;-80
2022/06/10 00:19:43;;;;;;;4.78;2.50;;;13.00;74.20;;;;;;4089818;28;20058;-80
2022/06/10 00:21:43;;;;;;;8.52;2.70;;;13.00;73.30;;;;;;4089349;28;20414;-80
2022/06/10 00:23:44;;;;;;;7.10;2.63;;;13.00;73.20;;;;;;4090831;28;20031;-80
2022/06/10 00:25:45;;;;;;;4.95;2.05;;;13.00;73.10;;;;;;4090255;28;20055;-80
2022/06/10 00:27:46;;;;;;;9.32;2.65;;;13.00;73.20;;;;;;4087749;28;20035;-81
2022/06/10 00:29:50;;;;;;;7.10;2.58;;;13.00;73.10;;;;;;4086232;28;20027;-80
2022/06/10 00:31:51;;;;;;;6.68;2.35;;;13.00;73.10;;;;;;4090657;28;21255;-79
2022/06/10 00:33:52;;;;;;;6.72;2.28;;;13.10;73.20;;;;;;4089891;28;20082;-79
2022/06/10 00:35:53;;;;;;;5.97;2.35;;;13.00;73.10;;;;;;4091149;28;20506;-79
2022/06/10 00:37:54;;;;;;;8.63;2.40;;;13.10;73.30;;;;;;4086097;28;20035;-80
2022/06/10 00:39:55;;;;;;;9.15;2.50;;;13.00;73.00;;;;;;4084648;28;22173;-80
2022/06/10 00:41:57;;;;;;;5.65;2.20;;;13.00;72.90;;;;;;4075844;28;20027;-80
2022/06/10 00:43:58;;;;;;;5.22;1.85;;;13.10;72.80;;;;;;4083627;28;20035;-79
2022/06/10 00:46:01;;;;;;;7.00;2.05;;;13.10;72.70;;;;;;4085691;28;20114;-79
2022/06/10 00:48:02;;;;;;;;;;;13.10;72.70;;;;;;4067471;29;20034;-80
2022/06/10 00:50:24;;;;;;;5.45;2.17;;;13.10;72.60;;;;;;4074500;28;19998;-80
2022/06/10 00:52:31;;;;;;;8.30;1.95;;;13.10;72.30;;;;;;4087571;28;20043;-79
2022/06/10 00:54:42;;;;;;;4.78;2.00;;;13.10;72.30;;;;;;4070789;29;20043;-80
2022/06/10 00:57:00;;;;;;;4.65;1.67;;;13.10;72.30;;;;;;4089488;28;22930;-79
2022/06/10 00:59:17;;;;;;;7.07;2.00;;;13.10;72.40;;;;;;4078788;28;20116;-79
2022/06/10 01:01:20;;;;;;;7.82;1.90;;;13.10;72.40;;;;;;4085269;28;20495;-80
2022/06/10 01:03:20;;;;;;;7.22;2.22;;;13.10;72.30;;;;;;4068884;29;20154;-79
2022/06/10 01:05:25;;;;;;;6.97;1.58;;;13.10;72.30;;;;;;4067202;29;20066;-79
2022/06/10 01:07:39;;;;;;;10.68;1.90;;;13.10;72.30;;;;;;4087438;28;20162;-80
2022/06/10 01:09:41;;;;;;;12.70;2.25;;;13.10;72.30;;;;;;4083094;28;20031;-80
2022/06/10 01:11:49;;;;;;;6.03;2.38;;;13.10;72.30;;;;;;4088770;28;20023;-79
2022/06/10 01:13:52;;;;;;;7.40;2.35;;;13.10;72.20;;;;;;4081255;28;20114;-79
2022/06/10 01:16:08;;;;;;;6.55;2.22;;;13.10;72.20;;;;;;4079934;28;20465;-80
2022/06/10 01:18:32;;;;;;;8.02;2.30;;;13.10;72.20;;;;;;4089136;28;20149;-79
2022/06/10 01:20:45;;;;;;;8.25;2.03;;;13.10;72.20;;;;;;4085180;28;20023;-79
2022/06/10 01:23:20;;;;;;;7.93;2.53;;;13.10;72.00;;;;;;4087802;28;20105;-80
2022/06/10 01:25:45;;;;;;;7.40;2.20;;;13.10;72.00;;;;;;4068301;29;20040;-80
2022/06/10 01:28:11;;;;;;;7.63;2.72;;;13.10;71.90;;;;;;4090418;28;20031;-80
2022/06/10 01:30:41;;;;;;;9.27;2.55;;;13.10;71.90;;;;;;4084866;28;20042;-79
2022/06/10 01:32:56;;;;;;;6.40;2.20;;;13.00;71.90;;;;;;4087394;28;20038;-80
2022/06/10 01:35:02;;;;;;;9.35;2.50;;;13.10;71.90;;;;;;4075502;28;20471;-80
2022/06/10 01:37:28;;;;;;;5.97;2.58;;;13.00;71.80;;;;;;4084697;28;20026;-80
2022/06/10 01:39:43;;;;;;;4.30;2.10;;;13.00;71.90;;;;;;4087641;28;20110;-80
2022/06/10 01:42:02;;;;;;;6.45;2.50;;;13.00;71.80;;;;;;4084637;28;20618;-79
2022/06/10 01:44:25;;;;;;;5.50;2.40;;;13.00;71.80;;;;;;4073732;29;20062;-80
2022/06/10 01:46:32;;;;;;;8.73;2.53;;;13.00;71.90;;;;;;4089062;28;20019;-80
2022/06/10 01:49:24;;;;;;;7.97;2.47;;;12.90;71.80;;;;;;4086548;28;20035;-80
2022/06/10 01:52:09;;;;;;;6.72;3.10;;;12.90;71.90;;;;;;4067004;28;20112;-80
2022/06/10 01:54:21;;;;;;;9.43;2.60;;;12.90;71.90;;;;;;4091910;28;20035;-80
2022/06/10 01:56:47;;;;;;;7.93;2.38;;;12.80;71.90;;;;;;4073542;28;20126;-79
2022/06/10 01:59:40;;;;;;;5.82;2.53;;;12.80;71.90;;;;;;4088489;28;20073;-80
2022/06/10 02:02:20;;;;;;;6.57;2.53;;;12.80;72.00;;;;;;4083547;28;20066;-79
2022/06/10 02:05:02;;;;;;;4.40;2.50;;;12.80;72.10;;;;;;4089332;28;20067;-80
2022/06/10 02:07:33;;;;;;;8.70;3.28;;;12.70;72.10;;;;;;4089956;28;20186;-80
2022/06/10 02:10:03;;;;;;;4.78;2.20;;;12.70;72.10;;;;;;4068830;28;20233;-79
2022/06/10 02:12:29;;;;;;;9.93;3.33;;;12.70;72.20;;;;;;4083810;28;20036;-79
2022/06/10 02:15:26;;;;;;;7.78;2.58;;;12.70;72.20;;;;;;4086829;28;20051;-79
2022/06/10 02:18:07;;;;;;;5.18;2.47;;;12.60;72.30;;;;;;4090069;28;20031;-80
2022/06/10 02:20:30;;;;;;;7.20;2.60;;;12.60;72.30;;;;;;4085642;28;20188;-80
2022/06/10 02:22:55;;;;;;;5.40;2.58;;;12.60;72.30;;;;;;4073517;28;20768;-79
2022/06/10 02:25:22;;;;;;;6.15;2.38;;;12.50;72.30;;;;;;4086562;28;20034;-80
2022/06/10 02:27:50;;;;;;;7.38;2.97;;;12.50;72.30;;;;;;4088295;28;20035;-79
2022/06/10 02:30:35;;;;;;;7.57;2.92;;;12.50;72.40;;;;;;4087569;28;20039;-80
2022/06/10 02:32:57;;;;;;;7.85;2.53;;;12.40;72.30;;;;;;4089464;28;20403;-79
2022/06/10 02:35:18;;;;;;;5.22;2.65;;;12.40;72.30;;;;;;4081978;28;20122;-80
2022/06/10 02:37:54;;;;;;;4.03;2.53;;;12.40;72.30;;;;;;4084204;28;20062;-79
2022/06/10 02:40:13;;;;;;;4.97;2.38;;;12.30;72.20;;;;;;4086201;28;20311;-79
2022/06/10 02:42:19;;;;;;;5.72;2.17;;;12.30;72.30;;;;;;4083545;28;20049;-79
2022/06/10 02:44:38;;;;;;;9.60;3.00;;;12.30;72.40;;;;;;4087259;28;20090;-80
2022/06/10 02:47:00;;;;;;;7.05;2.90;;;12.30;72.40;;;;;;4085331;28;20505;-79
2022/06/10 02:49:16;;;;;;;5.97;2.80;;;12.20;72.30;;;;;;4087798;28;20027;-80
2022/06/10 02:51:16;;;;;;;6.93;2.78;;;12.20;72.30;;;;;;4085525;28;20031;-80
2022/06/10 02:53:17;;;;;;;7.35;3.00;;;12.10;72.30;;;;;;4088529;28;20049;-80
2022/06/10 02:55:25;;;;;;;5.90;2.78;;;12.10;72.50;;;;;;4084716;28;20043;-79
2022/06/10 03:02:25;;;;;;;9.98;2.88;;;12.00;72.50;;;;;;4088623;28;20035;-79
2022/06/10 03:04:49;;;;;;;7.25;3.35;;;12.00;72.60;;;;;;4085306;28;20039;-80
2022/06/10 03:07:01;;;;;;;5.97;2.88;;;12.00;72.60;;;;;;4086854;28;20037;-79
2022/06/10 03:09:16;;;;;;;7.00;2.75;;;11.90;72.60;;;;;;4086682;28;20027;-80
2022/06/10 03:11:38;;;;;;;8.30;2.58;;;11.90;72.70;;;;;;4067414;29;20039;-80
2022/06/10 03:13:57;;;;;;;14.10;3.50;;;11.90;72.90;;;;;;4079808;28;20046;-80
2022/06/10 03:16:12;;;;;;;8.30;2.88;;;11.90;73.20;;;;;;4069531;29;20048;-80
2022/06/10 03:18:51;;;;;;;9.40;2.90;;;11.90;73.20;;;;;;4082625;28;20040;-79
2022/06/10 03:21:10;;;;;;;6.03;2.70;;;11.80;73.50;;;;;;4070807;29;20507;-79
2022/06/10 03:23:26;;;;;;;8.27;2.58;;;11.80;73.50;;;;;;4089577;28;20491;-80
2022/06/10 03:25:36;;;;;;;10.57;2.60;;;11.80;73.60;;;;;;4086893;28;20129;-79
2022/06/10 03:27:47;;;;;;;8.07;2.72;;;11.80;73.70;;;;;;4087416;28;20039;-80
2022/06/10 03:30:06;;;;;;;10.80;3.20;;;11.80;73.70;;;;;;4055998;29;20616;-80
2022/06/10 03:32:24;;;;;;;7.22;2.60;;;11.80;73.90;;;;;;4071195;29;20038;-79
2022/06/10 03:34:35;;;;;;;4.63;2.67;;;11.80;73.90;;;;;;4065968;29;20448;-79
2022/06/10 03:36:36;;;;;;;10.07;2.80;;;11.80;73.90;;;;;;4086672;28;20039;-80
2022/06/10 03:38:45;;;;;;;9.20;2.55;;;11.80;74.00;;;;;;4085126;28;20097;-79
2022/06/10 03:40:58;;;;;;;11.25;2.70;;;11.80;74.10;;;;;;4084541;28;20042;-79
2022/06/10 03:43:03;;;;;;;6.05;2.80;;;11.80;74.30;;;;;;4084243;28;20079;-79
2022/06/10 03:45:04;;;;;;;8.27;3.38;;;11.80;74.30;;;;;;4064899;29;20107;-79
2022/06/10 03:47:07;;;;;;;5.18;2.70;;;11.80;74.60;;;;;;4087155;28;20054;-79
2022/06/10 03:49:12;;;;;;;10.50;3.90;;;11.80;75.10;;;;;;4089922;28;20035;-80
2022/06/10 03:51:15;;;;;;;11.75;3.45;;;11.90;75.70;;;;;;4073748;29;20031;-80
2022/06/10 03:53:19;;;;;;;9.33;3.47;;;11.90;76.00;;;;;;4090794;28;20031;-79
2022/06/10 03:55:21;;;;;;;14.13;3.63;;;11.90;76.40;;;;;;4080412;28;20106;-79
2022/06/10 03:57:21;;;;;;;12.27;3.90;;;12.00;76.70;;;;;;4072780;29;20480;-79
2022/06/10 03:59:22;;;;;;;11.63;3.28;;;12.10;77.70;;;;;;4049817;29;20036;-79
2022/06/10 04:01:23;;;;;;;11.02;3.63;;;12.10;76.90;;;;;;4089721;28;20113;-80
2022/06/10 04:03:25;;;;;;;12.25;3.53;;;12.10;77.00;;;;;;4090832;28;20034;-79
2022/06/10 04:05:25;;;;;;;12.90;3.70;;;12.20;77.30;;;;;;4086951;28;20149;-79
2022/06/10 04:07:26;;;;;;;11.73;3.60;;;12.30;77.60;;;;;;4087592;28;21855;-79
2022/06/10 04:09:27;;;;;;;7.55;3.30;;;12.30;78.50;;;;;;4068527;29;20024;-79
2022/06/10 04:11:28;;;;;;;8.43;3.25;;;12.40;78.00;;;;;;4087711;28;20075;-79
2022/06/10 04:13:49;;;;;;;7.20;3.10;;;12.50;78.10;;;;;;4073804;28;20066;-80
2022/06/10 04:16:10;;;;;;;11.13;3.58;;;12.50;78.20;;;;;;4079865;28;20035;-80
2022/06/10 04:18:31;;;;;;;13.40;3.83;;;12.60;78.20;;;;;;4090501;28;20042;-80
2022/06/10 04:20:52;;;;;;;9.65;3.97;;;12.70;77.70;;;;;;4088632;28;20059;-79
2022/06/10 04:23:13;;;;;;;16.15;3.70;;;12.80;77.80;;;;;;4071487;28;20724;-80
2022/06/10 04:25:36;;;;;;;14.55;3.35;;;12.80;77.70;;;;;;4086990;28;20036;-80
2022/06/10 04:27:57;;;;;;;13.20;3.33;;;13.00;77.60;;;;;;4084735;28;20063;-79
2022/06/10 04:30:40;;;;;;;13.82;3.53;;;13.10;77.50;;;;;;4071431;29;20079;-80
2022/06/10 04:33:01;;;;;;;12.40;3.58;;;13.20;77.40;;;;;;4093461;28;20613;-80
2022/06/10 04:35:23;;;;;;;15.10;3.20;;;13.30;77.30;;;;;;4088882;28;20024;-80
2022/06/10 04:37:45;;;;;;;13.02;3.22;;;13.40;76.80;;;;;;4085635;28;20038;-80
2022/06/10 04:39:45;;;;;;;17.65;2.58;;;13.50;76.50;;;;;;4083802;28;20027;-80
2022/06/10 04:41:49;;;;;;;12.48;3.10;;;13.50;76.40;;;;;;4070071;29;20036;-80
2022/06/10 04:43:51;;;;;;;14.00;3.10;;;13.60;76.30;;;;;;4083783;28;20027;-80
2022/06/10 04:45:54;;;;;;;14.15;3.05;;;13.70;76.20;;;;;;4084735;28;20039;-80
2022/06/10 04:47:55;;;;;;;9.88;3.08;;;13.80;75.90;;;;;;4066481;29;20024;-80
2022/06/10 04:49:59;;;;;;;14.13;3.22;;;13.80;76.00;;;;;;4087406;28;20027;-80
2022/06/10 04:52:00;;;;;;;13.55;2.92;;;13.90;77.00;;;;;;4091601;28;20066;-80
2022/06/10 04:54:01;;;;;;;8.38;2.95;;;14.00;76.30;;;;;;4068530;29;20044;-81
2022/06/10 04:56:01;;;;;;;19.80;3.35;;;14.10;76.10;;;;;;4089858;28;20031;-80
2022/06/10 04:58:03;;;;;;;15.45;3.00;;;14.20;76.20;;;;;;4084899;28;20062;-80
2022/06/10 05:00:06;;;;;;;12.65;2.85;;;14.30;75.80;;;;;;4069491;29;20035;-80
2022/06/10 05:02:07;;;;;;;12.68;3.10;;;14.40;75.10;;;;;;4066751;29;20035;-80
2022/06/10 05:04:08;;;;;;;15.40;2.92;;;14.50;74.60;;;;;;4065744;29;20146;-80
2022/06/10 05:06:09;;;;;;;20.90;3.17;;;14.50;74.40;;;;;;4074414;29;20066;-80
2022/06/10 05:08:13;;;;;;;16.55;2.80;;;14.60;74.30;;;;;;4089684;28;20027;-79
2022/06/10 05:10:14;;;;;;;;;;;14.60;73.90;;;;;;4069802;29;20024;-80
2022/06/10 05:12:15;;;;;;;15.88;3.10;;;14.70;73.10;;;;;;4087265;28;20294;-81
2022/06/10 05:14:16;;;;;;;17.30;3.03;;;14.80;73.10;;;;;;4088891;28;20035;-80
2022/06/10 05:16:16;;;;;;;15.40;2.78;;;14.80;72.80;;;;;;4078516;29;20487;-81
2022/06/10 05:18:19;;;;;;;12.25;2.88;;;14.90;72.80;;;;;;4092300;28;20158;-81
2022/06/10 05:20:25;;;;;;;10.90;2.67;;;14.90;73.10;;;;;;4093388;28;20039;-80
2022/06/10 05:22:26;;;;;;;14.18;2.72;;;14.90;72.70;;;;;;4096337;28;20173;-80
2022/06/10 05:24:27;;;;;;;15.10;2.85;;;15.00;72.50;;;;;;4097862;28;20135;-81
2022/06/10 05:26:29;;;;;;;11.05;2.55;;;15.10;72.50;;;;;;4093057;28;20550;-80
2022/06/10 05:28:29;;;;;;;11.32;2.70;;;15.10;72.10;;;;;;4081124;28;20499;-81
2022/06/10 05:30:33;;;;;;;14.30;3.30;;;15.10;71.80;;;;;;4074284;28;20035;-80
2022/06/10 05:32:33;;;;;;;20.00;2.80;;;15.20;71.40;;;;;;4088903;28;20507;-81
2022/06/10 05:34:46;;;;;;;14.30;2.63;;;15.20;71.60;;;;;;4088258;28;20137;-80
2022/06/10 05:36:46;;;;;;;16.85;2.88;;;15.30;71.80;;;;;;4090403;28;20027;-81
2022/06/10 05:38:48;;;;;;;10.77;2.45;;;15.40;71.70;;;;;;4086198;28;20049;-81
2022/06/10 05:40:48;;;;;;;11.40;2.20;;;15.40;71.50;;;;;;4088826;28;20408;-81
2022/06/10 05:42:50;;;;;;;24.23;3.35;;;15.50;70.70;;;;;;4085499;28;20119;-80
2022/06/10 05:44:51;;;;;;;12.60;2.50;;;15.50;70.50;;;;;;4090394;28;20035;-79
2022/06/10 05:46:53;;;;;;;13.63;2.50;;;15.60;70.60;;;;;;4087774;28;20027;-80
2022/06/10 05:48:54;;;;;;;16.75;2.40;;;15.60;70.40;;;;;;4094048;28;20027;-81
2022/06/10 05:50:56;;;;;;;16.33;2.97;;;15.70;70.20;;;;;;4087950;28;20041;-81
2022/06/10 05:52:57;;;;;;;12.30;2.10;;;15.70;70.20;;;;;;4093779;28;20046;-81
2022/06/10 05:55:01;;;;;;;9.50;2.05;;;15.80;70.30;;;;;;4090117;28;20027;-80
2022/06/10 05:57:02;;;;;;;14.18;2.67;;;15.90;70.30;;;;;;4091298;28;20047;-80
2022/06/10 05:59:03;;;;;;;16.10;2.42;;;16.00;70.30;;;;;;4089893;28;20042;-81
2022/06/10 06:01:03;;;;;;;12.82;2.53;;;16.00;69.70;;;;;;4084934;28;20160;-81
2022/06/10 06:03:04;;;;;;;8.18;1.88;;;16.10;69.20;;;;;;4087861;28;20047;-79
2022/06/10 06:05:05;;;;;;;18.20;2.80;;;16.10;69.10;;;;;;4088691;28;20086;-80
2022/06/10 06:07:06;;;;;;;13.27;2.42;;;16.20;69.00;;;;;;4087180;28;20038;-80
2022/06/10 06:09:09;;;;;;;12.50;2.42;;;16.30;68.40;;;;;;4070995;29;20047;-81
2022/06/10 06:11:10;;;;;;;18.58;3.00;;;16.30;68.30;;;;;;4086698;28;20158;-80
2022/06/10 06:13:11;;;;;;;10.45;1.60;;;16.40;68.20;;;;;;4082581;28;20039;-80
2022/06/10 06:15:13;;;;;;;9.60;1.98;;;16.40;68.30;;;;;;4087485;28;20043;-80
2022/06/10 06:17:15;;;;;;;9.02;1.90;;;16.50;68.00;;;;;;4089511;28;20583;-81
2022/06/10 06:19:16;;;;;;;12.93;1.97;;;16.50;67.70;;;;;;4086801;28;20506;-80
2022/06/10 06:21:17;;;;;;;14.43;2.25;;;16.60;68.40;;;;;;4089195;28;20067;-80
2022/06/10 06:23:18;;;;;;;15.52;2.03;;;16.60;67.40;;;;;;4086283;28;20506;-79
2022/06/10 06:25:19;;;;;;;13.80;2.22;;;16.70;67.30;;;;;;4085741;28;20507;-80
2022/06/10 06:27:20;;;;;;;16.17;2.63;;;16.70;67.30;;;;;;4084128;28;20027;-80
2022/06/10 06:29:23;;;;;;;18.20;3.03;;;16.80;67.00;;;;;;4091192;28;20459;-79
2022/06/10 06:31:23;;;;;;;15.85;2.53;;;16.90;67.10;;;;;;4086425;28;20777;-81
2022/06/10 06:33:24;;;;;;;14.30;2.20;;;16.90;66.70;;;;;;4087267;28;20035;-80
2022/06/10 06:35:25;;;;;;;21.90;2.50;;;17.00;66.60;;;;;;4088968;28;20484;-80
2022/06/10 06:37:26;;;;;;;18.90;2.80;;;17.10;66.20;;;;;;4089188;28;20587;-80
2022/06/10 06:39:27;;;;;;;13.35;2.10;;;17.10;66.00;;;;;;4088886;28;20073;-80
2022/06/10 06:41:27;;;;;;;10.48;2.20;;;17.20;66.20;;;;;;4068366;29;20047;-81
2022/06/10 06:43:28;;;;;;;11.10;2.20;;;17.20;65.90;;;;;;4085911;28;20410;-80
2022/06/10 06:45:29;;;;;;;14.05;2.30;;;17.30;65.60;;;;;;4089780;28;20027;-80
2022/06/10 06:47:30;;;;;;;14.30;2.22;;;17.40;64.90;;;;;;4090104;28;20028;-80
2022/06/10 06:49:31;;;;;;;14.90;2.33;;;17.40;64.90;;;;;;4085216;28;20066;-81
2022/06/10 06:51:33;;;;;;;12.93;2.33;;;17.50;64.60;;;;;;4086100;28;20543;-80
2022/06/10 06:53:37;;;;;;;15.52;2.33;;;17.60;64.10;;;;;;4083679;28;20438;-81
2022/06/10 06:55:39;;;;;;;11.27;2.30;;;17.60;64.10;;;;;;4085525;28;20523;-80
2022/06/10 06:57:41;;;;;;;12.73;2.60;;;17.70;63.50;;;;;;4069950;29;20118;-80
2022/06/10 06:59:42;;;;;;;10.00;1.77;;;17.70;62.70;;;;;;4073925;29;20027;-80
2022/06/10 07:01:42;;;;;;;11.02;1.60;;;17.80;62.60;;;;;;4083556;28;20042;-81
2022/06/10 07:03:43;;;;;;;11.45;2.17;;;17.80;62.90;;;;;;4071726;29;20036;-80
2022/06/10 07:05:44;;;;;;;7.35;1.67;;;17.80;62.20;;;;;;4085364;28;22067;-81
2022/06/10 07:07:46;;;;;;;12.65;2.08;;;17.90;63.20;;;;;;4064339;29;20083;-81
2022/06/10 07:09:46;;;;;;;13.95;2.28;;;18.00;62.40;;;;;;4085370;28;20031;-81
2022/06/10 07:11:47;;;;;;;8.90;2.47;;;18.00;61.90;;;;;;4085177;28;20019;-81
2022/06/10 07:13:48;;;;;;;14.38;1.98;;;18.00;61.60;;;;;;4087558;28;20045;-80
2022/06/10 07:15:49;;;;;;;9.68;1.80;;;18.10;61.70;;;;;;4089824;28;20429;-80
2022/06/10 07:17:50;;;;;;;18.15;2.05;;;18.20;61.20;;;;;;4088320;28;20492;-80
2022/06/10 07:19:52;;;;;;;9.98;2.10;;;18.20;60.90;;;;;;4089034;28;20050;-79
2022/06/10 07:21:52;;;;;;;13.00;2.13;;;18.30;60.60;;;;;;4084053;28;20468;-81
2022/06/10 07:23:54;;;;;;;9.52;2.00;;;18.30;60.50;;;;;;4090589;28;20122;-81
2022/06/10 07:25:56;;;;;;;9.93;2.00;;;18.40;60.30;;;;;;4079489;29;20420;-81
2022/06/10 07:28:00;;;;;;;13.25;1.80;;;18.40;60.20;;;;;;4095250;28;20027;-80
2022/06/10 07:30:01;;;;;;;11.07;2.50;;;18.50;59.80;;;;;;4071405;28;20504;-81
2022/06/10 07:32:03;;;;;;;11.30;1.77;;;18.50;59.90;;;;;;4071257;29;21000;-80
2022/06/10 07:34:03;;;;;;;12.05;2.15;;;18.60;59.90;;;;;;4096862;28;20053;-80
2022/06/10 07:36:06;;;;;;;11.27;2.75;;;18.60;59.90;;;;;;4096520;28;20043;-81
2022/06/10 07:38:09;;;;;;;10.85;1.77;;;18.70;59.60;;;;;;4060115;29;20059;-81
2022/06/10 07:41:56;;;;;;;14.15;2.20;;;18.70;59.20;;;;;;4089291;28;20146;-81
2022/06/10 07:42:34;;;;;;;13.07;1.70;;;18.80;59.20;;;;;;4088469;28;20764;-80
2022/06/10 07:44:38;;;;;;;14.52;2.10;;;18.90;59.40;;;;;;4091155;28;20089;-81
2022/06/10 07:46:38;;;;;;;10.85;2.03;;;18.90;59.20;;;;;;4085571;28;20163;-80
2022/06/10 07:48:39;;;;;;;12.65;2.28;;;19.00;59.10;;;;;;4092105;28;20027;-81
2022/06/10 07:50:54;;;;;;;9.50;1.92;;;19.00;58.90;;;;;;4069149;29;20254;-81
2022/06/10 07:53:03;;;;;;;10.70;2.13;;;19.10;58.70;;;;;;4094204;28;20476;-80
2022/06/10 07:55:24;;;;;;;12.75;1.80;;;19.10;58.70;;;;;;4089494;28;20132;-81
2022/06/10 07:57:32;;;;;;;7.47;1.58;;;19.20;58.50;;;;;;4101067;28;20118;-81
2022/06/10 07:59:42;;;;;;;8.65;1.52;;;19.20;58.60;;;;;;4080869;29;20051;-81
2022/06/10 08:02:02;;;;;;;9.52;1.90;;;19.30;58.60;;;;;;4095780;28;20388;-81
2022/06/10 08:04:23;;;;;;;9.68;2.00;;;19.40;58.50;;;;;;4088534;28;20042;-80
2022/06/10 08:06:32;;;;;;;12.32;1.83;;;19.50;57.60;;;;;;4095651;28;20455;-81
2022/06/10 08:08:34;;;;;;;13.60;1.83;;;19.50;57.10;;;;;;4077731;29;20032;-80
2022/06/10 08:10:55;;;;;;;10.65;1.95;;;19.50;57.00;;;;;;4090781;28;20127;-81
2022/06/10 08:13:17;;;;;;;12.23;1.92;;;19.60;56.90;;;;;;4088383;28;20408;-81
2022/06/10 08:15:38;;;;;;;11.65;1.95;;;19.60;57.20;;;;;;4093153;28;20747;-80
2022/06/10 08:17:44;;;;;;;8.75;1.50;;;19.70;57.00;;;;;;4092124;28;20492;-80
2022/06/10 08:20:06;;;;;;;4.75;1.48;;;19.70;57.00;;;;;;4084540;28;21399;-81
2022/06/10 08:22:34;;;;;;;7.55;1.52;;;19.80;56.60;;;;;;4090587;28;20112;-80
2022/06/10 08:24:54;;;;;;;6.13;1.63;;;19.80;56.30;;;;;;4089375;28;20474;-80
2022/06/10 08:27:15;;;;;;;6.97;1.48;;;19.90;56.60;;;;;;4091364;28;20917;-80
2022/06/10 08:29:36;;;;;;;13.77;2.58;;;20.00;56.80;;;;;;4072257;28;20039;-80
2022/06/10 08:31:56;;;;;;;7.93;2.10;;;20.10;56.10;;;;;;4087047;28;20039;-79
2022/06/10 08:34:17;;;;;;;13.25;1.90;;;20.10;55.00;;;;;;4083838;28;20106;-80
2022/06/10 08:36:38;;;;;;;11.50;1.75;;;20.20;55.40;;;;;;4090394;28;20129;-81
2022/06/10 08:38:58;;;;;;;11.23;1.58;;;20.20;54.60;;;;;;4090373;28;20161;-80
2022/06/10 08:41:22;;;;;;;8.52;1.35;;;20.30;53.70;;;;;;4086656;28;20103;-80
2022/06/10 08:43:59;;;;;;;11.50;1.85;;;20.30;53.60;;;;;;4081425;28;21254;-80
2022/06/10 08:46:50;;;;;;;7.22;1.60;;;20.40;53.10;;;;;;4089672;28;20043;-80
2022/06/10 08:49:19;;;;;;;8.00;1.50;;;20.40;53.40;;;;;;4091856;28;20722;-80
2022/06/10 08:52:03;;;;;;;5.50;1.33;;;20.40;53.00;;;;;;4084236;28;20043;-81
2022/06/10 08:54:35;;;;;;;5.85;1.08;;;20.40;52.00;;;;;;4090658;28;20054;-80
2022/06/10 08:57:02;;;;;;;11.30;1.60;;;20.40;52.70;;;;;;4082074;28;20162;-80
2022/06/10 08:59:36;;;;;;;8.18;1.38;;;20.40;52.30;;;;;;4087763;28;20043;-81
2022/06/10 09:02:08;;;;;;;7.38;1.67;;;20.40;52.60;;;;;;4089211;28;20070;-81
2022/06/10 09:04:44;;;;;;;11.75;1.40;;;20.40;52.90;;;;;;4087108;28;20094;-80
2022/06/10 09:07:41;;;;;;;7.63;1.40;;;20.40;53.10;;;;;;4087391;28;20126;-81
2022/06/10 09:10:05;;;;;;;5.68;1.20;;;20.50;51.50;;;;;;4087037;28;20035;-81
2022/06/10 09:13:00;;;;;;;8.93;1.40;;;20.50;51.60;;;;;;4086163;28;20039;-81
2022/06/10 09:15:24;;;;;;;8.70;0.80;;;20.60;51.40;;;;;;4091319;28;20035;-81
2022/06/10 09:17:55;;;;;;;5.15;0.98;;;20.70;51.20;;;;;;4066998;28;20657;-80
2022/06/10 09:20:35;;;;;;;5.60;1.00;;;20.80;50.60;;;;;;4089687;28;21565;-81
2022/06/10 09:23:01;;;;;;;5.88;1.30;;;20.90;49.40;;;;;;4092505;28;20089;-80
2022/06/10 09:25:39;;;;;;;4.88;0.85;;;21.00;48.60;;;;;;4096356;28;20073;-81
2022/06/10 09:28:00;;;;;;;8.93;1.10;;;21.00;46.80;;;;;;4091138;28;20103;-82
2022/06/10 09:30:24;;;;;;;6.07;1.00;;;21.00;48.00;;;;;;4086477;28;20034;-81
2022/06/10 09:33:09;;;;;;;7.72;2.00;;;21.00;48.20;;;;;;4090236;28;20099;-81
2022/06/10 09:35:28;;;;;;;5.20;0.90;;;21.10;47.10;;;;;;4076844;28;20083;-80
2022/06/10 09:38:06;;;;;;;7.28;1.50;;;21.10;47.30;;;;;;4086704;28;20550;-80
2022/06/10 09:40:42;;;;;;;5.80;1.00;;;21.10;47.10;;;;;;4085385;28;20037;-82
2022/06/10 09:43:06;;;;;;;8.38;1.75;;;21.10;47.50;;;;;;4087678;28;20094;-82
2022/06/10 09:45:49;;;;;;;6.55;1.50;;;21.20;48.20;;;;;;4091116;28;20129;-81
2022/06/10 09:48:17;;;;;;;9.05;1.85;;;21.20;48.60;;;;;;4089436;28;20042;-82
2022/06/10 09:50:55;;;;;;;6.00;1.75;;;21.20;47.30;;;;;;4093469;28;20034;-81
2022/06/10 09:53:36;;;;;;;6.47;1.25;;;21.30;46.10;;;;;;4091312;28;20046;-81
2022/06/10 09:55:58;;;;;;;14.30;3.60;;;21.30;45.00;;;;;;4083257;28;20046;-81
2022/06/10 09:58:32;;;;;;;6.50;1.85;;;21.30;46.20;;;;;;4091618;28;20033;-81
2022/06/10 10:01:25;;;;;;;8.85;1.50;;;21.30;45.80;;;;;;4080781;28;20143;-81
2022/06/10 10:03:59;;;;;;;8.15;1.00;;;21.20;45.10;;;;;;4088709;28;20467;-81
2022/06/10 10:06:34;;;;;;;6.65;1.05;;;21.20;46.10;;;;;;4088098;28;20050;-81
2022/06/10 10:08:59;;;;;;;6.13;1.33;;;21.20;46.80;;;;;;4087815;28;20054;-81
2022/06/10 10:11:30;;;;;;;12.45;1.90;;;21.20;46.80;;;;;;4091451;28;20054;-80
2022/06/10 10:14:11;;;;;;;10.27;1.17;;;21.20;47.10;;;;;;4086298;28;20041;-81
2022/06/10 10:16:49;;;;;;;5.60;1.33;;;21.20;47.40;;;;;;4091904;28;20046;-81
2022/06/10 10:19:23;;;;;;;7.55;1.50;;;21.30;47.60;;;;;;4088387;28;20094;-82
2022/06/10 10:22:16;;;;;;;12.10;1.60;;;21.30;47.90;;;;;;4087840;28;20114;-80
2022/06/10 10:24:40;;;;;;;15.98;2.00;;;21.20;47.40;;;;;;4071660;28;20560;-81
2022/06/10 10:27:00;;;;;;;6.57;1.27;;;21.20;47.60;;;;;;4088577;28;20073;-81
2022/06/10 10:29:33;;;;;;;12.57;1.25;;;21.20;48.30;;;;;;4092341;28;20045;-80
2022/06/10 10:32:08;;;;;;;9.02;1.20;;;21.20;48.00;;;;;;4093028;28;20097;-81
2022/06/10 10:34:36;;;;;;;7.68;2.00;;;21.20;48.90;;;;;;4092904;28;20803;-81
2022/06/10 10:36:59;;;;;;;17.50;1.73;;;21.10;48.50;;;;;;4097020;28;20050;-80
2022/06/10 10:39:25;;;;;;;9.48;1.83;;;21.10;48.70;;;;;;4080254;28;20517;-81
2022/06/10 10:41:48;;;;;;;10.90;1.73;;;21.10;48.80;;;;;;4087914;28;20073;-81
2022/06/10 10:44:20;;;;;;;9.27;1.30;;;21.10;48.00;;;;;;4068323;28;20056;-81
2022/06/10 10:46:56;;;;;;;5.45;1.77;;;21.10;47.00;;;;;;4081193;28;20086;-81
2022/06/10 10:49:48;;;;;;;10.95;1.60;;;21.10;47.40;;;;;;4088246;28;20042;-82
2022/06/10 10:52:14;;;;;;;8.85;1.40;;;21.10;47.80;;;;;;4091370;28;20522;-81
2022/06/10 10:54:36;;;;;;;7.53;1.45;;;21.20;48.40;;;;;;4090807;28;20123;-81
2022/06/10 10:56:56;;;;;;;13.60;2.75;;;21.20;48.30;;;;;;4096047;28;20051;-80
2022/06/10 10:59:37;;;;;;;8.10;1.70;;;21.20;48.20;;;;;;4096622;28;20299;-81
2022/06/10 11:01:56;;;;;;;10.07;1.52;;;21.20;47.80;;;;;;4093597;28;20554;-81
2022/06/10 11:04:36;;;;;;;9.82;1.70;;;21.30;48.30;;;;;;4094089;28;20058;-81
2022/06/10 11:06:59;;;;;;;13.43;2.08;;;21.20;47.90;;;;;;4095083;28;20085;-81
2022/06/10 11:09:24;;;;;;;8.50;1.70;;;21.30;47.40;;;;;;4092403;28;20140;-82
2022/06/10 11:11:44;;;;;;;7.95;1.58;;;21.30;47.40;;;;;;4082823;28;20126;-80
2022/06/10 11:14:16;;;;;;;9.13;1.42;;;21.30;46.60;;;;;;4087074;28;20054;-81
2022/06/10 11:16:42;;;;;;;6.95;1.40;;;21.30;47.10;;;;;;4094731;28;20058;-80
2022/06/10 11:19:34;;;;;;;8.65;1.38;;;21.30;46.70;;;;;;4079518;28;20115;-81
2022/06/10 11:21:56;;;;;;;6.57;1.27;;;21.30;46.40;;;;;;4049217;28;20051;-81
2022/06/10 11:24:18;;;;;;;7.57;1.42;;;21.30;46.40;;;;;;4089851;28;20423;-81
2022/06/10 11:26:49;;;;;;;16.40;2.00;;;21.30;46.90;;;;;;4096538;28;20035;-81
2022/06/10 11:29:12;;;;;;;11.40;1.67;;;21.30;47.20;;;;;;4074954;29;20043;-81
2022/06/10 11:31:43;;;;;;;12.43;1.58;;;21.40;47.40;;;;;;4093663;28;20091;-81
2022/06/10 11:34:05;;;;;;;10.15;1.48;;;21.40;47.70;;;;;;4095596;28;20135;-80
2022/06/10 11:36:28;;;;;;;17.48;2.38;;;21.50;47.70;;;;;;4095095;28;20070;-81
2022/06/10 11:39:17;;;;;;;12.07;1.60;;;21.50;47.70;;;;;;4093134;28;20051;-80
2022/06/10 11:41:37;;;;;;;4.50;0.85;;;21.60;47.30;;;;;;4088789;28;20054;-81
2022/06/10 11:44:03;;;;;;;3.92;0.90;;;21.60;45.50;;;;;;4074908;28;20568;-82